Etusivu
METAR-TAF:

METAR-TAF

Lentoasemat :

Yakima, Washington, Yhdysvallat

Leveyspiiri: 46-33-51N, Pituuspiiri: 120-32-01W, korkeus merenpinnasta: 333 m

Tämänhetkinen sää

Tämä raportti tehtiin 43 minuuttia sitten, kello 01.53 UTC
Tuuli 4 kn etelästä
Lämpötila 17°C
Kosteus 42%
Ilmanpaine 1029 hPa
Näkyvyys: 16.1 km
selkeää

METAR: KYKM 280153Z 17004KT 10SM CLR 17/04 A3040 RMK AO2 SLP298 T01670039

Aika: 19:36 (02:36 UTC)

Sääennuste

Tämä raportti tehtiin 3 tuntia ja 16 minuuttia sitten, kello 23.20 UTC
Ennuste voimassa 28. päivästä klo 00 UTC - 28. päivään klo 24 UTC
Tuuli 6 kn etelästä/kaakosta
Näkyvyys: 10 km
selkeää
From 28. päivästä klo 0300 UTC
Tuuli 5 kn lännestä
Näkyvyys: 10 km
selkeää
From 28. päivästä klo 1700 UTC
Tuuli 5 kn etelästä/kaakosta
Näkyvyys: 10 km
selkeää

TAF: KYKM 272320Z 2800/2824 15006KT P6SM SKC FM280300 26005KT P6SM SKC FM281700 15005KT P6SM SKC

Säähavainnot ja -ennusteet yli 4000 lentoasemalta (METAR- ja TAF-raportit).

Käytössä olevat sääasemat on merkitty karttaan keltaisilla ja punaisilla pisteillä.

Aseta hiiri pisteen päälle nähdäksesi sääaseman nimen.

Klikkaa sitten nähdäksesi säähavainnot ja -ennusteet.

Kartan vaihtaminen: klikkaa mustalla rastilla varustettuja vihreitä pisteitä, niin voit zoomata sisään; viivalla varustettua vihreää pistettä, niin voit zoomata ulos tai vihreitä nuolia, niin pääset viereisille kartoille.


METAR-TAF: